sensor_id;sensor_type;location;lat;lon;timestamp;temperature;humidity
43665;DHT22;29263;48.172;11.484;2023-04-03T00:01:30;3.10;99.90
43665;DHT22;29263;48.172;11.484;2023-04-03T00:03:56;3.10;99.90
43665;DHT22;29263;48.172;11.484;2023-04-03T00:06:23;3.00;99.90
43665;DHT22;29263;48.172;11.484;2023-04-03T00:08:49;3.10;99.90
43665;DHT22;29263;48.172;11.484;2023-04-03T00:11:15;3.00;99.90
43665;DHT22;29263;48.172;11.484;2023-04-03T00:13:41;3.00;99.90
43665;DHT22;29263;48.172;11.484;2023-04-03T00:16:08;2.90;99.90
43665;DHT22;29263;48.172;11.484;2023-04-03T00:18:35;2.90;99.90
43665;DHT22;29263;48.172;11.484;2023-04-03T00:21:00;3.00;99.90
43665;DHT22;29263;48.172;11.484;2023-04-03T00:23:26;2.90;99.90
43665;DHT22;29263;48.172;11.484;2023-04-03T00:25:52;2.90;99.90
43665;DHT22;29263;48.172;11.484;2023-04-03T00:28:18;2.80;99.90
43665;DHT22;29263;48.172;11.484;2023-04-03T00:30:43;2.80;99.90
43665;DHT22;29263;48.172;11.484;2023-04-03T00:33:12;2.80;99.90
43665;DHT22;29263;48.172;11.484;2023-04-03T00:35:38;2.70;99.90
43665;DHT22;29263;48.172;11.484;2023-04-03T00:38:04;2.70;99.90
43665;DHT22;29263;48.172;11.484;2023-04-03T00:40:38;2.80;99.90
43665;DHT22;29263;48.172;11.484;2023-04-03T00:43:21;2.80;99.90
43665;DHT22;29263;48.172;11.484;2023-04-03T00:45:48;2.80;99.90
43665;DHT22;29263;48.172;11.484;2023-04-03T00:48:42;2.70;99.90
43665;DHT22;29263;48.172;11.484;2023-04-03T00:51:14;2.70;99.90
43665;DHT22;29263;48.172;11.484;2023-04-03T00:53:47;2.80;99.90
43665;DHT22;29263;48.172;11.484;2023-04-03T00:56:16;2.70;99.90
43665;DHT22;29263;48.172;11.484;2023-04-03T00:58:49;2.70;99.90
43665;DHT22;29263;48.172;11.484;2023-04-03T01:01:20;2.70;99.90
43665;DHT22;29263;48.172;11.484;2023-04-03T01:03:47;2.60;99.90
43665;DHT22;29263;48.172;11.484;2023-04-03T01:06:14;2.60;99.90
43665;DHT22;29263;48.172;11.484;2023-04-03T01:08:41;2.60;99.90
43665;DHT22;29263;48.172;11.484;2023-04-03T01:11:07;2.60;99.90
43665;DHT22;29263;48.172;11.484;2023-04-03T01:13:33;2.60;99.90
43665;DHT22;29263;48.172;11.484;2023-04-03T01:16:07;2.60;99.90
43665;DHT22;29263;48.172;11.484;2023-04-03T01:18:35;2.70;99.90
43665;DHT22;29263;48.172;11.484;2023-04-03T01:24:33;2.70;99.90
43665;DHT22;29263;48.172;11.484;2023-04-03T01:27:01;2.70;99.90
43665;DHT22;29263;48.172;11.484;2023-04-03T01:29:28;2.70;99.90
43665;DHT22;29263;48.172;11.484;2023-04-03T01:31:56;2.70;99.90
43665;DHT22;29263;48.172;11.484;2023-04-03T01:34:23;2.70;99.90
43665;DHT22;29263;48.172;11.484;2023-04-03T01:36:48;2.60;99.90
43665;DHT22;29263;48.172;11.484;2023-04-03T01:39:14;2.70;99.90
43665;DHT22;29263;48.172;11.484;2023-04-03T01:41:40;2.60;99.90
43665;DHT22;29263;48.172;11.484;2023-04-03T01:44:06;2.60;99.90
43665;DHT22;29263;48.172;11.484;2023-04-03T01:46:31;2.60;99.90
43665;DHT22;29263;48.172;11.484;2023-04-03T01:48:57;2.60;99.90
43665;DHT22;29263;48.172;11.484;2023-04-03T01:51:23;2.60;99.90
43665;DHT22;29263;48.172;11.484;2023-04-03T01:53:48;2.70;99.90
43665;DHT22;29263;48.172;11.484;2023-04-03T01:56:14;2.70;99.90
43665;DHT22;29263;48.172;11.484;2023-04-03T01:58:40;2.70;99.90
43665;DHT22;29263;48.172;11.484;2023-04-03T02:01:05;2.70;99.90
43665;DHT22;29263;48.172;11.484;2023-04-03T02:03:32;2.70;99.90
43665;DHT22;29263;48.172;11.484;2023-04-03T02:05:58;2.70;99.90
43665;DHT22;29263;48.172;11.484;2023-04-03T02:08:24;2.70;99.90
43665;DHT22;29263;48.172;11.484;2023-04-03T02:10:50;2.70;99.90
43665;DHT22;29263;48.172;11.484;2023-04-03T02:13:16;2.70;99.90
43665;DHT22;29263;48.172;11.484;2023-04-03T02:15:42;2.70;99.90
43665;DHT22;29263;48.172;11.484;2023-04-03T02:18:08;2.70;99.90
43665;DHT22;29263;48.172;11.484;2023-04-03T02:20:34;2.70;99.90
43665;DHT22;29263;48.172;11.484;2023-04-03T02:23:00;2.70;99.90
43665;DHT22;29263;48.172;11.484;2023-04-03T02:25:26;2.70;99.90
43665;DHT22;29263;48.172;11.484;2023-04-03T02:27:51;2.70;99.90
43665;DHT22;29263;48.172;11.484;2023-04-03T02:30:17;2.70;99.90
43665;DHT22;29263;48.172;11.484;2023-04-03T02:32:43;2.80;99.90
43665;DHT22;29263;48.172;11.484;2023-04-03T02:35:10;2.70;99.90
43665;DHT22;29263;48.172;11.484;2023-04-03T02:37:37;2.70;99.90
43665;DHT22;29263;48.172;11.484;2023-04-03T02:40:03;2.70;99.90
43665;DHT22;29263;48.172;11.484;2023-04-03T02:42:29;2.80;99.90
43665;DHT22;29263;48.172;11.484;2023-04-03T02:44:55;2.80;99.90
43665;DHT22;29263;48.172;11.484;2023-04-03T02:47:21;2.80;99.90
43665;DHT22;29263;48.172;11.484;2023-04-03T02:49:47;2.80;99.90
43665;DHT22;29263;48.172;11.484;2023-04-03T02:52:13;2.80;99.90
43665;DHT22;29263;48.172;11.484;2023-04-03T02:54:39;2.80;99.90
43665;DHT22;29263;48.172;11.484;2023-04-03T02:57:04;2.80;99.90
43665;DHT22;29263;48.172;11.484;2023-04-03T02:59:30;2.80;99.90
43665;DHT22;29263;48.172;11.484;2023-04-03T03:01:56;2.80;99.90
43665;DHT22;29263;48.172;11.484;2023-04-03T03:04:22;2.80;99.90
43665;DHT22;29263;48.172;11.484;2023-04-03T03:06:48;2.80;99.90
43665;DHT22;29263;48.172;11.484;2023-04-03T03:09:14;2.80;99.90
43665;DHT22;29263;48.172;11.484;2023-04-03T03:11:40;2.80;99.90
43665;DHT22;29263;48.172;11.484;2023-04-03T03:14:05;2.80;99.90
43665;DHT22;29263;48.172;11.484;2023-04-03T03:16:31;2.80;99.90
43665;DHT22;29263;48.172;11.484;2023-04-03T03:18:56;2.80;99.90
43665;DHT22;29263;48.172;11.484;2023-04-03T03:21:22;2.80;99.90
43665;DHT22;29263;48.172;11.484;2023-04-03T03:23:48;2.80;99.90
43665;DHT22;29263;48.172;11.484;2023-04-03T03:26:13;2.80;99.90
43665;DHT22;29263;48.172;11.484;2023-04-03T03:28:39;2.80;99.90
43665;DHT22;29263;48.172;11.484;2023-04-03T03:31:06;2.80;99.90
43665;DHT22;29263;48.172;11.484;2023-04-03T03:33:32;2.80;99.90
43665;DHT22;29263;48.172;11.484;2023-04-03T03:35:59;2.80;99.90
43665;DHT22;29263;48.172;11.484;2023-04-03T03:38:25;2.80;99.90
43665;DHT22;29263;48.172;11.484;2023-04-03T03:40:51;2.80;99.90
43665;DHT22;29263;48.172;11.484;2023-04-03T03:43:17;2.80;99.90
43665;DHT22;29263;48.172;11.484;2023-04-03T03:45:43;2.80;99.90
43665;DHT22;29263;48.172;11.484;2023-04-03T03:48:09;2.80;99.90
43665;DHT22;29263;48.172;11.484;2023-04-03T03:50:35;2.80;99.90
43665;DHT22;29263;48.172;11.484;2023-04-03T03:53:01;2.80;99.90
43665;DHT22;29263;48.172;11.484;2023-04-03T03:55:26;2.70;99.90
43665;DHT22;29263;48.172;11.484;2023-04-03T03:57:52;2.80;99.90
43665;DHT22;29263;48.172;11.484;2023-04-03T04:00:18;2.80;99.90
43665;DHT22;29263;48.172;11.484;2023-04-03T04:02:44;2.80;99.90
43665;DHT22;29263;48.172;11.484;2023-04-03T04:05:10;2.80;99.90
43665;DHT22;29263;48.172;11.484;2023-04-03T04:07:35;2.80;99.90
43665;DHT22;29263;48.172;11.484;2023-04-03T04:10:01;2.80;99.90
43665;DHT22;29263;48.172;11.484;2023-04-03T04:12:27;2.70;99.90
43665;DHT22;29263;48.172;11.484;2023-04-03T04:14:52;2.80;99.90
43665;DHT22;29263;48.172;11.484;2023-04-03T04:17:18;2.80;99.90
43665;DHT22;29263;48.172;11.484;2023-04-03T04:19:43;2.70;99.90
43665;DHT22;29263;48.172;11.484;2023-04-03T04:22:09;2.80;99.90
43665;DHT22;29263;48.172;11.484;2023-04-03T04:24:35;2.80;99.90
43665;DHT22;29263;48.172;11.484;2023-04-03T04:27:01;2.80;99.90
43665;DHT22;29263;48.172;11.484;2023-04-03T04:29:26;2.80;99.90
43665;DHT22;29263;48.172;11.484;2023-04-03T04:31:52;2.80;99.90
43665;DHT22;29263;48.172;11.484;2023-04-03T04:34:17;2.80;99.90
43665;DHT22;29263;48.172;11.484;2023-04-03T04:36:43;2.70;99.90
43665;DHT22;29263;48.172;11.484;2023-04-03T04:39:09;2.70;99.90
43665;DHT22;29263;48.172;11.484;2023-04-03T04:41:34;2.80;99.90
43665;DHT22;29263;48.172;11.484;2023-04-03T04:44:00;2.80;99.90
43665;DHT22;29263;48.172;11.484;2023-04-03T04:46:26;2.80;99.90
43665;DHT22;29263;48.172;11.484;2023-04-03T04:48:54;2.80;99.90
43665;DHT22;29263;48.172;11.484;2023-04-03T04:51:20;2.80;99.90
43665;DHT22;29263;48.172;11.484;2023-04-03T04:53:46;2.70;99.90
43665;DHT22;29263;48.172;11.484;2023-04-03T04:56:11;2.80;99.90
43665;DHT22;29263;48.172;11.484;2023-04-03T04:58:37;2.70;99.90
43665;DHT22;29263;48.172;11.484;2023-04-03T05:01:08;2.70;99.90
43665;DHT22;29263;48.172;11.484;2023-04-03T05:03:34;2.70;99.90
43665;DHT22;29263;48.172;11.484;2023-04-03T05:05:59;2.80;99.90
43665;DHT22;29263;48.172;11.484;2023-04-03T05:08:25;2.80;99.90
43665;DHT22;29263;48.172;11.484;2023-04-03T05:10:51;2.80;99.90
43665;DHT22;29263;48.172;11.484;2023-04-03T05:13:17;2.80;99.90
43665;DHT22;29263;48.172;11.484;2023-04-03T05:15:43;2.80;99.90
43665;DHT22;29263;48.172;11.484;2023-04-03T05:18:08;2.80;99.90
43665;DHT22;29263;48.172;11.484;2023-04-03T05:20:34;2.80;99.90
43665;DHT22;29263;48.172;11.484;2023-04-03T05:23:00;2.80;99.90
43665;DHT22;29263;48.172;11.484;2023-04-03T05:25:26;2.80;99.90
43665;DHT22;29263;48.172;11.484;2023-04-03T05:27:52;2.90;99.90
43665;DHT22;29263;48.172;11.484;2023-04-03T05:30:18;2.90;99.90
43665;DHT22;29263;48.172;11.484;2023-04-03T05:32:43;2.90;99.90
43665;DHT22;29263;48.172;11.484;2023-04-03T05:35:09;2.90;99.90
43665;DHT22;29263;48.172;11.484;2023-04-03T05:37:35;2.90;99.90
43665;DHT22;29263;48.172;11.484;2023-04-03T05:40:02;2.90;99.90
43665;DHT22;29263;48.172;11.484;2023-04-03T05:42:28;2.90;99.90
43665;DHT22;29263;48.172;11.484;2023-04-03T05:44:53;2.90;99.90
43665;DHT22;29263;48.172;11.484;2023-04-03T05:47:19;3.00;99.90
43665;DHT22;29263;48.172;11.484;2023-04-03T05:49:45;2.90;99.90
43665;DHT22;29263;48.172;11.484;2023-04-03T05:52:20;3.00;99.90
43665;DHT22;29263;48.172;11.484;2023-04-03T05:54:46;3.00;99.90
43665;DHT22;29263;48.172;11.484;2023-04-03T05:57:14;3.00;99.90
43665;DHT22;29263;48.172;11.484;2023-04-03T05:59:39;3.00;99.90
43665;DHT22;29263;48.172;11.484;2023-04-03T06:02:06;3.10;99.90
43665;DHT22;29263;48.172;11.484;2023-04-03T06:04:31;3.10;99.90
43665;DHT22;29263;48.172;11.484;2023-04-03T06:06:57;3.10;99.90
43665;DHT22;29263;48.172;11.484;2023-04-03T06:09:26;3.10;99.90
43665;DHT22;29263;48.172;11.484;2023-04-03T06:11:52;3.10;99.90
43665;DHT22;29263;48.172;11.484;2023-04-03T06:14:18;3.10;99.90
43665;DHT22;29263;48.172;11.484;2023-04-03T06:16:44;3.10;99.90
43665;DHT22;29263;48.172;11.484;2023-04-03T06:19:11;3.20;99.90
43665;DHT22;29263;48.172;11.484;2023-04-03T06:21:37;3.20;99.90
43665;DHT22;29263;48.172;11.484;2023-04-03T06:24:04;3.30;99.90
43665;DHT22;29263;48.172;11.484;2023-04-03T06:26:31;3.30;99.90
43665;DHT22;29263;48.172;11.484;2023-04-03T06:28:57;3.30;99.90
43665;DHT22;29263;48.172;11.484;2023-04-03T06:31:23;3.30;99.90
43665;DHT22;29263;48.172;11.484;2023-04-03T06:33:48;3.30;99.90
43665;DHT22;29263;48.172;11.484;2023-04-03T06:36:14;3.40;99.90
43665;DHT22;29263;48.172;11.484;2023-04-03T06:38:44;3.50;99.90
43665;DHT22;29263;48.172;11.484;2023-04-03T06:41:10;3.60;99.90
43665;DHT22;29263;48.172;11.484;2023-04-03T06:43:36;3.60;99.90
43665;DHT22;29263;48.172;11.484;2023-04-03T06:46:02;3.50;99.90
43665;DHT22;29263;48.172;11.484;2023-04-03T06:48:27;3.60;99.90
43665;DHT22;29263;48.172;11.484;2023-04-03T06:50:53;3.70;99.90
43665;DHT22;29263;48.172;11.484;2023-04-03T06:53:19;3.70;99.90
43665;DHT22;29263;48.172;11.484;2023-04-03T06:55:45;3.70;99.90
43665;DHT22;29263;48.172;11.484;2023-04-03T06:58:12;3.70;99.90
43665;DHT22;29263;48.172;11.484;2023-04-03T07:00:37;3.70;99.90
43665;DHT22;29263;48.172;11.484;2023-04-03T07:03:03;3.70;99.90
43665;DHT22;29263;48.172;11.484;2023-04-03T07:05:29;3.70;99.90
43665;DHT22;29263;48.172;11.484;2023-04-03T07:07:54;3.80;99.90
43665;DHT22;29263;48.172;11.484;2023-04-03T07:10:20;3.90;99.90
43665;DHT22;29263;48.172;11.484;2023-04-03T07:12:45;4.00;99.90
43665;DHT22;29263;48.172;11.484;2023-04-03T07:15:11;4.10;99.90
43665;DHT22;29263;48.172;11.484;2023-04-03T07:17:38;4.20;99.90
43665;DHT22;29263;48.172;11.484;2023-04-03T07:20:04;4.20;99.90
43665;DHT22;29263;48.172;11.484;2023-04-03T07:22:30;4.30;99.90
43665;DHT22;29263;48.172;11.484;2023-04-03T07:24:56;4.40;99.90
43665;DHT22;29263;48.172;11.484;2023-04-03T07:27:22;4.40;99.90
43665;DHT22;29263;48.172;11.484;2023-04-03T07:29:47;4.50;99.90
43665;DHT22;29263;48.172;11.484;2023-04-03T07:32:16;4.50;99.90
43665;DHT22;29263;48.172;11.484;2023-04-03T07:34:43;4.60;99.90
43665;DHT22;29263;48.172;11.484;2023-04-03T07:37:09;4.50;99.90
43665;DHT22;29263;48.172;11.484;2023-04-03T07:39:35;4.60;99.90
43665;DHT22;29263;48.172;11.484;2023-04-03T07:42:01;4.60;99.90
43665;DHT22;29263;48.172;11.484;2023-04-03T07:44:27;4.50;99.90
43665;DHT22;29263;48.172;11.484;2023-04-03T07:46:53;4.50;99.90
43665;DHT22;29263;48.172;11.484;2023-04-03T07:49:21;4.40;99.90
43665;DHT22;29263;48.172;11.484;2023-04-03T07:51:48;4.40;99.90
43665;DHT22;29263;48.172;11.484;2023-04-03T07:54:14;4.40;99.90
43665;DHT22;29263;48.172;11.484;2023-04-03T07:56:40;4.40;99.90
43665;DHT22;29263;48.172;11.484;2023-04-03T07:59:08;4.40;99.90
43665;DHT22;29263;48.172;11.484;2023-04-03T08:01:34;4.40;99.90
43665;DHT22;29263;48.172;11.484;2023-04-03T08:04:00;4.50;99.90
43665;DHT22;29263;48.172;11.484;2023-04-03T08:06:26;4.50;99.90
43665;DHT22;29263;48.172;11.484;2023-04-03T08:08:52;4.50;99.90
43665;DHT22;29263;48.172;11.484;2023-04-03T08:11:17;4.60;99.90
43665;DHT22;29263;48.172;11.484;2023-04-03T08:13:44;4.60;99.90
43665;DHT22;29263;48.172;11.484;2023-04-03T08:16:16;4.60;99.90
43665;DHT22;29263;48.172;11.484;2023-04-03T08:18:42;4.60;99.90
43665;DHT22;29263;48.172;11.484;2023-04-03T08:21:09;4.70;99.90
43665;DHT22;29263;48.172;11.484;2023-04-03T08:23:36;4.70;99.90
43665;DHT22;29263;48.172;11.484;2023-04-03T08:26:09;4.70;99.90
43665;DHT22;29263;48.172;11.484;2023-04-03T08:28:35;4.80;99.90
43665;DHT22;29263;48.172;11.484;2023-04-03T08:31:06;4.70;99.90
43665;DHT22;29263;48.172;11.484;2023-04-03T08:33:35;4.80;99.90
43665;DHT22;29263;48.172;11.484;2023-04-03T08:36:05;4.60;99.90
43665;DHT22;29263;48.172;11.484;2023-04-03T08:38:31;4.80;99.90
43665;DHT22;29263;48.172;11.484;2023-04-03T08:41:20;4.80;99.90
43665;DHT22;29263;48.172;11.484;2023-04-03T08:52:11;4.70;99.90
43665;DHT22;29263;48.172;11.484;2023-04-03T08:54:49;4.70;99.90
43665;DHT22;29263;48.172;11.484;2023-04-03T08:57:16;4.80;99.90
43665;DHT22;29263;48.172;11.484;2023-04-03T08:59:42;4.90;99.90
43665;DHT22;29263;48.172;11.484;2023-04-03T09:02:34;5.10;99.90
43665;DHT22;29263;48.172;11.484;2023-04-03T09:05:05;5.10;99.90
43665;DHT22;29263;48.172;11.484;2023-04-03T09:07:43;5.20;99.90
43665;DHT22;29263;48.172;11.484;2023-04-03T09:10:13;5.30;99.90
43665;DHT22;29263;48.172;11.484;2023-04-03T09:12:42;5.30;99.90
43665;DHT22;29263;48.172;11.484;2023-04-03T09:26:05;5.40;99.90
43665;DHT22;29263;48.172;11.484;2023-04-03T09:28:39;5.50;99.30
43665;DHT22;29263;48.172;11.484;2023-04-03T09:31:22;5.60;96.30
43665;DHT22;29263;48.172;11.484;2023-04-03T09:33:50;5.60;95.40
43665;DHT22;29263;48.172;11.484;2023-04-03T09:36:37;5.60;98.90
43665;DHT22;29263;48.172;11.484;2023-04-03T09:39:14;5.40;99.90
43665;DHT22;29263;48.172;11.484;2023-04-03T09:41:40;5.50;98.90
43665;DHT22;29263;48.172;11.484;2023-04-03T09:44:27;5.50;95.40
43665;DHT22;29263;48.172;11.484;2023-04-03T09:46:53;5.60;98.30
43665;DHT22;29263;48.172;11.484;2023-04-03T09:49:22;5.60;93.70
43665;DHT22;29263;48.172;11.484;2023-04-03T09:51:47;5.60;97.10
43665;DHT22;29263;48.172;11.484;2023-04-03T09:54:33;5.70;97.30
43665;DHT22;29263;48.172;11.484;2023-04-03T09:57:09;5.80;92.80
43665;DHT22;29263;48.172;11.484;2023-04-03T09:59:47;5.70;90.80
43665;DHT22;29263;48.172;11.484;2023-04-03T10:02:37;5.60;92.50
43665;DHT22;29263;48.172;11.484;2023-04-03T10:10:32;5.50;98.10
43665;DHT22;29263;48.172;11.484;2023-04-03T10:13:23;5.60;94.50
43665;DHT22;29263;48.172;11.484;2023-04-03T10:16:03;5.70;93.20
43665;DHT22;29263;48.172;11.484;2023-04-03T10:18:58;5.70;91.90
43665;DHT22;29263;48.172;11.484;2023-04-03T10:24:25;5.70;95.60
43665;DHT22;29263;48.172;11.484;2023-04-03T10:26:58;5.70;94.30
43665;DHT22;29263;48.172;11.484;2023-04-03T10:32:45;5.40;99.50
43665;DHT22;29263;48.172;11.484;2023-04-03T10:42:00;5.60;97.30
43665;DHT22;29263;48.172;11.484;2023-04-03T10:44:30;5.50;94.90
43665;DHT22;29263;48.172;11.484;2023-04-03T10:47:18;5.40;94.60
43665;DHT22;29263;48.172;11.484;2023-04-03T10:55:43;5.50;94.70
43665;DHT22;29263;48.172;11.484;2023-04-03T10:59:02;5.50;91.40
43665;DHT22;29263;48.172;11.484;2023-04-03T11:01:52;5.40;85.10
43665;DHT22;29263;48.172;11.484;2023-04-03T11:04:00;5.30;87.70
43665;DHT22;29263;48.172;11.484;2023-04-03T11:11:46;5.30;81.40
43665;DHT22;29263;48.172;11.484;2023-04-03T11:14:36;5.30;87.30
43665;DHT22;29263;48.172;11.484;2023-04-03T11:20:01;5.50;81.90
43665;DHT22;29263;48.172;11.484;2023-04-03T11:22:48;5.40;81.90
43665;DHT22;29263;48.172;11.484;2023-04-03T11:25:24;5.40;84.30
43665;DHT22;29263;48.172;11.484;2023-04-03T11:28:04;5.50;82.00
43665;DHT22;29263;48.172;11.484;2023-04-03T11:33:37;5.30;84.10
43665;DHT22;29263;48.172;11.484;2023-04-03T11:36:19;5.30;81.90
43665;DHT22;29263;48.172;11.484;2023-04-03T11:38:49;5.40;81.80
43665;DHT22;29263;48.172;11.484;2023-04-03T11:41:17;5.40;83.20
43665;DHT22;29263;48.172;11.484;2023-04-03T11:46:50;5.30;81.10
43665;DHT22;29263;48.172;11.484;2023-04-03T12:05:57;5.90;67.60
43665;DHT22;29263;48.172;11.484;2023-04-03T12:08:27;5.90;65.10
43665;DHT22;29263;48.172;11.484;2023-04-03T12:16:47;6.50;63.40
43665;DHT22;29263;48.172;11.484;2023-04-03T12:24:24;6.60;59.20
43665;DHT22;29263;48.172;11.484;2023-04-03T12:29:50;7.00;59.70
43665;DHT22;29263;48.172;11.484;2023-04-03T12:38:15;7.40;58.00
43665;DHT22;29263;48.172;11.484;2023-04-03T12:40:53;7.60;58.60
43665;DHT22;29263;48.172;11.484;2023-04-03T12:43:42;7.70;59.40
43665;DHT22;29263;48.172;11.484;2023-04-03T12:48:49;8.00;54.50
43665;DHT22;29263;48.172;11.484;2023-04-03T12:51:34;7.70;56.80
43665;DHT22;29263;48.172;11.484;2023-04-03T12:54:14;7.70;57.20
43665;DHT22;29263;48.172;11.484;2023-04-03T12:56:41;7.80;58.60
43665;DHT22;29263;48.172;11.484;2023-04-03T12:59:20;7.90;56.10
43665;DHT22;29263;48.172;11.484;2023-04-03T13:02:39;7.80;54.50
43665;DHT22;29263;48.172;11.484;2023-04-03T13:05:09;7.30;56.40
43665;DHT22;29263;48.172;11.484;2023-04-03T13:07:37;7.20;57.20
43665;DHT22;29263;48.172;11.484;2023-04-03T13:12:34;7.10;58.30
43665;DHT22;29263;48.172;11.484;2023-04-03T13:15:11;7.00;57.50
43665;DHT22;29263;48.172;11.484;2023-04-03T13:17:39;6.90;57.00
43665;DHT22;29263;48.172;11.484;2023-04-03T13:20:21;6.90;59.50
43665;DHT22;29263;48.172;11.484;2023-04-03T13:25:21;7.00;59.60
43665;DHT22;29263;48.172;11.484;2023-04-03T13:27:47;7.00;64.90
43665;DHT22;29263;48.172;11.484;2023-04-03T13:30:35;7.30;61.30
43665;DHT22;29263;48.172;11.484;2023-04-03T13:33:04;7.20;56.60
43665;DHT22;29263;48.172;11.484;2023-04-03T13:35:39;7.10;57.60
43665;DHT22;29263;48.172;11.484;2023-04-03T13:38:21;7.00;57.00
43665;DHT22;29263;48.172;11.484;2023-04-03T13:41:26;6.80;58.10
43665;DHT22;29263;48.172;11.484;2023-04-03T13:43:54;6.70;59.70
43665;DHT22;29263;48.172;11.484;2023-04-03T13:46:27;6.40;59.40
43665;DHT22;29263;48.172;11.484;2023-04-03T13:48:56;6.40;59.60
43665;DHT22;29263;48.172;11.484;2023-04-03T13:51:23;6.40;59.30
43665;DHT22;29263;48.172;11.484;2023-04-03T13:53:55;6.40;59.50
43665;DHT22;29263;48.172;11.484;2023-04-03T14:01:46;6.80;57.90
43665;DHT22;29263;48.172;11.484;2023-04-03T14:04:26;6.80;58.70
43665;DHT22;29263;48.172;11.484;2023-04-03T14:06:53;6.70;58.50
43665;DHT22;29263;48.172;11.484;2023-04-03T14:09:21;6.70;57.50
43665;DHT22;29263;48.172;11.484;2023-04-03T14:11:49;6.80;57.00
43665;DHT22;29263;48.172;11.484;2023-04-03T14:14:20;6.90;57.60
43665;DHT22;29263;48.172;11.484;2023-04-03T14:16:50;7.00;57.70
43665;DHT22;29263;48.172;11.484;2023-04-03T14:21:47;7.40;57.30
43665;DHT22;29263;48.172;11.484;2023-04-03T14:24:13;7.70;56.10
43665;DHT22;29263;48.172;11.484;2023-04-03T14:26:39;8.00;53.60
43665;DHT22;29263;48.172;11.484;2023-04-03T14:29:05;8.50;50.80
43665;DHT22;29263;48.172;11.484;2023-04-03T14:31:31;9.00;50.50
43665;DHT22;29263;48.172;11.484;2023-04-03T14:36:25;10.40;47.30
43665;DHT22;29263;48.172;11.484;2023-04-03T14:38:52;11.80;44.80
43665;DHT22;29263;48.172;11.484;2023-04-03T14:41:21;13.20;39.80
43665;DHT22;29263;48.172;11.484;2023-04-03T14:43:48;13.20;37.40
43665;DHT22;29263;48.172;11.484;2023-04-03T14:46:17;13.60;37.60
43665;DHT22;29263;48.172;11.484;2023-04-03T14:48:44;14.60;36.40
43665;DHT22;29263;48.172;11.484;2023-04-03T14:51:13;15.50;34.00
43665;DHT22;29263;48.172;11.484;2023-04-03T14:53:40;16.10;35.20
43665;DHT22;29263;48.172;11.484;2023-04-03T14:56:21;16.40;33.00
43665;DHT22;29263;48.172;11.484;2023-04-03T14:58:49;16.20;33.60
43665;DHT22;29263;48.172;11.484;2023-04-03T15:01:18;16.70;32.60
43665;DHT22;29263;48.172;11.484;2023-04-03T15:03:44;15.40;33.60
43665;DHT22;29263;48.172;11.484;2023-04-03T15:08:39;12.30;36.80
43665;DHT22;29263;48.172;11.484;2023-04-03T15:11:07;10.70;39.70
43665;DHT22;29263;48.172;11.484;2023-04-03T15:13:33;9.80;41.90
43665;DHT22;29263;48.172;11.484;2023-04-03T15:15:58;9.10;41.90
43665;DHT22;29263;48.172;11.484;2023-04-03T15:18:26;8.50;44.20
43665;DHT22;29263;48.172;11.484;2023-04-03T15:20:53;8.20;44.80
43665;DHT22;29263;48.172;11.484;2023-04-03T15:23:19;8.70;44.40
43665;DHT22;29263;48.172;11.484;2023-04-03T15:25:47;9.90;42.20
43665;DHT22;29263;48.172;11.484;2023-04-03T15:28:37;11.50;38.90
43665;DHT22;29263;48.172;11.484;2023-04-03T15:31:05;12.90;37.70
43665;DHT22;29263;48.172;11.484;2023-04-03T15:33:36;13.70;36.10
43665;DHT22;29263;48.172;11.484;2023-04-03T15:36:05;13.20;35.00
43665;DHT22;29263;48.172;11.484;2023-04-03T15:38:31;12.20;36.40
43665;DHT22;29263;48.172;11.484;2023-04-03T15:40:57;12.00;37.60
43665;DHT22;29263;48.172;11.484;2023-04-03T15:43:24;11.60;37.30
43665;DHT22;29263;48.172;11.484;2023-04-03T15:45:49;11.00;37.60
43665;DHT22;29263;48.172;11.484;2023-04-03T15:48:16;11.10;38.20
43665;DHT22;29263;48.172;11.484;2023-04-03T15:50:42;10.90;37.80
43665;DHT22;29263;48.172;11.484;2023-04-03T15:53:09;11.20;38.40
43665;DHT22;29263;48.172;11.484;2023-04-03T15:55:36;11.70;37.70
43665;DHT22;29263;48.172;11.484;2023-04-03T15:58:03;11.60;37.70
43665;DHT22;29263;48.172;11.484;2023-04-03T16:00:29;11.60;37.10
43665;DHT22;29263;48.172;11.484;2023-04-03T16:03:05;11.20;35.90
43665;DHT22;29263;48.172;11.484;2023-04-03T16:05:35;10.70;37.40
43665;DHT22;29263;48.172;11.484;2023-04-03T16:08:01;10.00;40.00
43665;DHT22;29263;48.172;11.484;2023-04-03T16:10:27;9.40;39.90
43665;DHT22;29263;48.172;11.484;2023-04-03T16:12:53;8.90;41.60
43665;DHT22;29263;48.172;11.484;2023-04-03T16:15:19;8.70;43.90
43665;DHT22;29263;48.172;11.484;2023-04-03T16:17:45;8.70;42.10
43665;DHT22;29263;48.172;11.484;2023-04-03T16:20:15;8.50;42.40
43665;DHT22;29263;48.172;11.484;2023-04-03T16:22:41;8.20;43.40
43665;DHT22;29263;48.172;11.484;2023-04-03T16:25:08;8.00;44.40
43665;DHT22;29263;48.172;11.484;2023-04-03T16:27:34;7.80;45.60
43665;DHT22;29263;48.172;11.484;2023-04-03T16:30:00;7.70;44.90
43665;DHT22;29263;48.172;11.484;2023-04-03T16:32:29;7.60;45.80
43665;DHT22;29263;48.172;11.484;2023-04-03T16:34:55;7.60;45.30
43665;DHT22;29263;48.172;11.484;2023-04-03T16:37:21;7.50;43.70
43665;DHT22;29263;48.172;11.484;2023-04-03T16:39:47;7.50;45.40
43665;DHT22;29263;48.172;11.484;2023-04-03T16:42:12;7.40;45.10
43665;DHT22;29263;48.172;11.484;2023-04-03T16:44:38;7.40;44.60
43665;DHT22;29263;48.172;11.484;2023-04-03T16:47:05;7.30;44.10
43665;DHT22;29263;48.172;11.484;2023-04-03T16:49:31;7.00;45.50
43665;DHT22;29263;48.172;11.484;2023-04-03T16:52:01;6.80;46.70
43665;DHT22;29263;48.172;11.484;2023-04-03T16:54:28;6.60;47.20
43665;DHT22;29263;48.172;11.484;2023-04-03T16:56:53;6.40;47.30
43665;DHT22;29263;48.172;11.484;2023-04-03T16:59:19;6.30;48.00
43665;DHT22;29263;48.172;11.484;2023-04-03T17:01:45;6.40;48.80
43665;DHT22;29263;48.172;11.484;2023-04-03T17:04:10;6.40;48.40
43665;DHT22;29263;48.172;11.484;2023-04-03T17:06:38;6.30;49.10
43665;DHT22;29263;48.172;11.484;2023-04-03T17:09:03;6.30;49.40
43665;DHT22;29263;48.172;11.484;2023-04-03T17:11:30;6.30;49.80
43665;DHT22;29263;48.172;11.484;2023-04-03T17:13:56;6.10;48.50
43665;DHT22;29263;48.172;11.484;2023-04-03T17:16:23;6.00;49.40
43665;DHT22;29263;48.172;11.484;2023-04-03T17:18:49;5.90;48.90
43665;DHT22;29263;48.172;11.484;2023-04-03T17:21:15;5.90;50.10
43665;DHT22;29263;48.172;11.484;2023-04-03T17:23:44;5.80;49.80
43665;DHT22;29263;48.172;11.484;2023-04-03T17:26:10;5.70;50.50
43665;DHT22;29263;48.172;11.484;2023-04-03T17:28:36;5.70;51.10
43665;DHT22;29263;48.172;11.484;2023-04-03T17:31:03;5.60;50.70
43665;DHT22;29263;48.172;11.484;2023-04-03T17:33:29;5.60;52.40
43665;DHT22;29263;48.172;11.484;2023-04-03T17:36:00;5.40;51.80
43665;DHT22;29263;48.172;11.484;2023-04-03T17:38:27;5.30;53.00